sensor_id;sensor_type;location;lat;lon;timestamp;pressure;altitude;pressure_sealevel;temperature;humidity
62103;BME280;48077;48.104;11.702;2023-02-14T00:00:04;97310.19;;;-1.99;100.00
62103;BME280;48077;48.104;11.702;2023-02-14T00:02:28;97305.38;;;-2.06;100.00
62103;BME280;48077;48.104;11.702;2023-02-14T00:04:51;97309.66;;;-2.05;100.00
62103;BME280;48077;48.104;11.702;2023-02-14T00:07:15;97289.63;;;-2.17;100.00
62103;BME280;48077;48.104;11.702;2023-02-14T00:09:41;97284.00;;;-2.24;100.00
62103;BME280;48077;48.104;11.702;2023-02-14T00:12:05;97314.88;;;-2.05;100.00
62103;BME280;48077;48.104;11.702;2023-02-14T00:14:29;97306.13;;;-2.04;100.00
62103;BME280;48077;48.104;11.702;2023-02-14T00:17:11;97295.75;;;-2.05;100.00
62103;BME280;48077;48.104;11.702;2023-02-14T00:19:34;97296.91;;;-2.09;100.00
62103;BME280;48077;48.104;11.702;2023-02-14T00:21:58;97301.72;;;-2.03;100.00
62103;BME280;48077;48.104;11.702;2023-02-14T00:24:23;97294.94;;;-2.06;100.00
62103;BME280;48077;48.104;11.702;2023-02-14T00:26:48;97291.59;;;-2.08;100.00
62103;BME280;48077;48.104;11.702;2023-02-14T00:29:15;97281.34;;;-2.11;100.00
62103;BME280;48077;48.104;11.702;2023-02-14T00:31:39;97288.88;;;-2.06;100.00
62103;BME280;48077;48.104;11.702;2023-02-14T00:34:03;97266.31;;;-2.20;100.00
62103;BME280;48077;48.104;11.702;2023-02-14T00:36:27;97269.41;;;-2.15;100.00
62103;BME280;48077;48.104;11.702;2023-02-14T00:38:50;97286.13;;;-2.05;100.00
62103;BME280;48077;48.104;11.702;2023-02-14T00:41:14;97273.63;;;-2.12;100.00
62103;BME280;48077;48.104;11.702;2023-02-14T00:43:41;97279.38;;;-2.20;100.00
62103;BME280;48077;48.104;11.702;2023-02-14T00:46:04;97289.63;;;-2.17;100.00
62103;BME280;48077;48.104;11.702;2023-02-14T00:48:28;97283.78;;;-2.20;100.00
62103;BME280;48077;48.104;11.702;2023-02-14T00:50:51;97283.69;;;-2.32;100.00
62103;BME280;48077;48.104;11.702;2023-02-14T00:53:14;97313.03;;;-2.15;100.00
62103;BME280;48077;48.104;11.702;2023-02-14T00:55:40;97318.38;;;-2.17;100.00
62103;BME280;48077;48.104;11.702;2023-02-14T00:58:06;97313.13;;;-2.17;100.00
62103;BME280;48077;48.104;11.702;2023-02-14T01:00:29;97307.31;;;-2.20;100.00
62103;BME280;48077;48.104;11.702;2023-02-14T01:02:53;97276.41;;;-2.39;100.00
62103;BME280;48077;48.104;11.702;2023-02-14T01:05:16;97283.59;;;-2.30;100.00
62103;BME280;48077;48.104;11.702;2023-02-14T01:07:40;97306.31;;;-2.07;100.00
62103;BME280;48077;48.104;11.702;2023-02-14T01:10:03;97292.84;;;-2.13;100.00
62103;BME280;48077;48.104;11.702;2023-02-14T01:12:27;97283.22;;;-2.13;100.00
62103;BME280;48077;48.104;11.702;2023-02-14T01:14:50;97300.06;;;-2.04;100.00
62103;BME280;48077;48.104;11.702;2023-02-14T01:17:14;97300.78;;;-2.02;100.00
62103;BME280;48077;48.104;11.702;2023-02-14T01:19:37;97276.53;;;-2.17;100.00
62103;BME280;48077;48.104;11.702;2023-02-14T01:22:04;97290.03;;;-2.10;100.00
62103;BME280;48077;48.104;11.702;2023-02-14T01:24:27;97305.88;;;-2.00;100.00
62103;BME280;48077;48.104;11.702;2023-02-14T01:26:51;97303.50;;;-2.04;100.00
62103;BME280;48077;48.104;11.702;2023-02-14T01:29:14;97304.03;;;-2.11;100.00
62103;BME280;48077;48.104;11.702;2023-02-14T01:31:37;97311.38;;;-2.16;100.00
62103;BME280;48077;48.104;11.702;2023-02-14T01:34:03;97316.06;;;-2.09;100.00
62103;BME280;48077;48.104;11.702;2023-02-14T01:36:33;97311.97;;;-2.13;100.00
62103;BME280;48077;48.104;11.702;2023-02-14T01:39:03;97319.53;;;-2.21;100.00
62103;BME280;48077;48.104;11.702;2023-02-14T01:41:29;97328.09;;;-2.19;100.00
62103;BME280;48077;48.104;11.702;2023-02-14T01:44:03;97312.97;;;-2.27;100.00
62103;BME280;48077;48.104;11.702;2023-02-14T01:46:32;97314.19;;;-2.19;100.00
62103;BME280;48077;48.104;11.702;2023-02-14T01:49:02;97325.69;;;-2.09;100.00
62103;BME280;48077;48.104;11.702;2023-02-14T01:51:28;97318.78;;;-2.10;100.00
62103;BME280;48077;48.104;11.702;2023-02-14T01:53:52;97281.22;;;-2.33;100.00
62103;BME280;48077;48.104;11.702;2023-02-14T01:56:20;97309.50;;;-2.14;100.00
62103;BME280;48077;48.104;11.702;2023-02-14T01:58:50;97323.34;;;-2.01;100.00
62103;BME280;48077;48.104;11.702;2023-02-14T02:01:16;97299.97;;;-2.15;100.00
62103;BME280;48077;48.104;11.702;2023-02-14T02:03:58;97299.47;;;-2.20;100.00
62103;BME280;48077;48.104;11.702;2023-02-14T02:06:31;97303.75;;;-2.19;100.00
62103;BME280;48077;48.104;11.702;2023-02-14T02:09:06;97321.50;;;-2.12;100.00
62103;BME280;48077;48.104;11.702;2023-02-14T02:11:30;97254.78;;;-2.54;100.00
62103;BME280;48077;48.104;11.702;2023-02-14T02:13:54;97314.81;;;-2.16;100.00
62103;BME280;48077;48.104;11.702;2023-02-14T02:16:31;97265.03;;;-2.51;100.00
62103;BME280;48077;48.104;11.702;2023-02-14T02:19:24;97317.66;;;-2.19;100.00
62103;BME280;48077;48.104;11.702;2023-02-14T02:22:22;97313.56;;;-2.23;100.00
62103;BME280;48077;48.104;11.702;2023-02-14T02:33:24;97301.66;;;-2.27;100.00
62103;BME280;48077;48.104;11.702;2023-02-14T02:41:54;97278.47;;;-2.32;100.00
62103;BME280;48077;48.104;11.702;2023-02-14T02:44:37;97284.03;;;-2.36;100.00
62103;BME280;48077;48.104;11.702;2023-02-14T02:50:08;97295.75;;;-2.42;100.00
62103;BME280;48077;48.104;11.702;2023-02-14T02:53:18;97283.34;;;-2.51;100.00
62103;BME280;48077;48.104;11.702;2023-02-14T02:55:56;97290.94;;;-2.35;100.00
62103;BME280;48077;48.104;11.702;2023-02-14T02:58:42;97285.47;;;-2.32;100.00
62103;BME280;48077;48.104;11.702;2023-02-14T03:01:10;97278.91;;;-2.38;100.00
62103;BME280;48077;48.104;11.702;2023-02-14T03:03:36;97226.31;;;-2.70;100.00
62103;BME280;48077;48.104;11.702;2023-02-14T03:06:20;97271.91;;;-2.37;100.00
62103;BME280;48077;48.104;11.702;2023-02-14T03:08:43;97252.19;;;-2.54;100.00
62103;BME280;48077;48.104;11.702;2023-02-14T03:11:08;97276.53;;;-2.41;100.00
62103;BME280;48077;48.104;11.702;2023-02-14T03:16:29;97255.31;;;-2.49;100.00
62103;BME280;48077;48.104;11.702;2023-02-14T03:19:12;97289.56;;;-2.28;100.00
62103;BME280;48077;48.104;11.702;2023-02-14T03:22:00;97277.41;;;-2.29;100.00
62103;BME280;48077;48.104;11.702;2023-02-14T03:24:52;97262.94;;;-2.46;100.00
62103;BME280;48077;48.104;11.702;2023-02-14T03:27:26;97275.47;;;-2.38;100.00
62103;BME280;48077;48.104;11.702;2023-02-14T03:30:04;97285.81;;;-2.37;100.00
62103;BME280;48077;48.104;11.702;2023-02-14T03:37:33;97290.22;;;-2.37;100.00
62103;BME280;48077;48.104;11.702;2023-02-14T03:40:14;97287.81;;;-2.40;100.00
62103;BME280;48077;48.104;11.702;2023-02-14T03:45:29;97219.25;;;-2.81;100.00
62103;BME280;48077;48.104;11.702;2023-02-14T03:47:56;97231.44;;;-2.81;100.00
62103;BME280;48077;48.104;11.702;2023-02-14T03:50:23;97245.44;;;-2.70;100.00
62103;BME280;48077;48.104;11.702;2023-02-14T03:52:50;97280.41;;;-2.47;100.00
62103;BME280;48077;48.104;11.702;2023-02-14T03:55:21;97304.53;;;-2.43;100.00
62103;BME280;48077;48.104;11.702;2023-02-14T03:58:07;97309.03;;;-2.45;100.00
62103;BME280;48077;48.104;11.702;2023-02-14T04:00:36;97276.97;;;-2.60;100.00
62103;BME280;48077;48.104;11.702;2023-02-14T04:03:05;97289.50;;;-2.52;100.00
62103;BME280;48077;48.104;11.702;2023-02-14T04:05:33;97290.53;;;-2.55;100.00
62103;BME280;48077;48.104;11.702;2023-02-14T04:07:57;97291.69;;;-2.46;100.00
62103;BME280;48077;48.104;11.702;2023-02-14T04:10:21;97289.28;;;-2.49;100.00
62103;BME280;48077;48.104;11.702;2023-02-14T04:12:45;97278.53;;;-2.57;100.00
62103;BME280;48077;48.104;11.702;2023-02-14T04:15:10;97241.78;;;-2.80;100.00
62103;BME280;48077;48.104;11.702;2023-02-14T04:17:34;97245.84;;;-2.76;100.00
62103;BME280;48077;48.104;11.702;2023-02-14T04:20:16;97281.25;;;-2.59;100.00
62103;BME280;48077;48.104;11.702;2023-02-14T04:22:40;97281.16;;;-2.57;100.00
62103;BME280;48077;48.104;11.702;2023-02-14T04:25:03;97243.47;;;-2.79;100.00
62103;BME280;48077;48.104;11.702;2023-02-14T04:27:27;97257.25;;;-2.77;100.00
62103;BME280;48077;48.104;11.702;2023-02-14T04:29:50;97228.13;;;-2.96;100.00
62103;BME280;48077;48.104;11.702;2023-02-14T04:32:17;97276.84;;;-2.58;100.00
62103;BME280;48077;48.104;11.702;2023-02-14T04:34:41;97273.13;;;-2.67;100.00
62103;BME280;48077;48.104;11.702;2023-02-14T04:37:05;97291.59;;;-2.57;100.00
62103;BME280;48077;48.104;11.702;2023-02-14T04:39:29;97219.97;;;-3.05;100.00
62103;BME280;48077;48.104;11.702;2023-02-14T04:41:52;97272.50;;;-2.71;100.00
62103;BME280;48077;48.104;11.702;2023-02-14T04:44:16;97280.22;;;-2.69;100.00
62103;BME280;48077;48.104;11.702;2023-02-14T04:46:39;97260.41;;;-2.85;100.00
62103;BME280;48077;48.104;11.702;2023-02-14T04:49:03;97262.19;;;-2.85;100.00
62103;BME280;48077;48.104;11.702;2023-02-14T04:51:26;97223.97;;;-3.12;100.00
62103;BME280;48077;48.104;11.702;2023-02-14T04:53:49;97249.88;;;-2.96;100.00
62103;BME280;48077;48.104;11.702;2023-02-14T04:56:13;97226.47;;;-3.10;100.00
62103;BME280;48077;48.104;11.702;2023-02-14T04:58:36;97261.94;;;-2.82;100.00
62103;BME280;48077;48.104;11.702;2023-02-14T05:01:02;97201.00;;;-3.19;100.00
62103;BME280;48077;48.104;11.702;2023-02-14T05:03:25;97215.81;;;-3.20;100.00
62103;BME280;48077;48.104;11.702;2023-02-14T05:05:51;97213.94;;;-3.18;100.00
62103;BME280;48077;48.104;11.702;2023-02-14T05:08:14;97205.28;;;-3.18;100.00
62103;BME280;48077;48.104;11.702;2023-02-14T05:10:38;97198.38;;;-3.07;100.00
62103;BME280;48077;48.104;11.702;2023-02-14T05:13:01;97263.63;;;-2.68;100.00
62103;BME280;48077;48.104;11.702;2023-02-14T05:15:24;97260.38;;;-2.72;100.00
62103;BME280;48077;48.104;11.702;2023-02-14T05:17:48;97254.44;;;-2.74;100.00
62103;BME280;48077;48.104;11.702;2023-02-14T05:20:11;97241.69;;;-2.78;100.00
62103;BME280;48077;48.104;11.702;2023-02-14T05:22:35;97235.22;;;-2.86;100.00
62103;BME280;48077;48.104;11.702;2023-02-14T05:24:58;97259.75;;;-2.75;100.00
62103;BME280;48077;48.104;11.702;2023-02-14T05:27:23;97237.94;;;-2.87;100.00
62103;BME280;48077;48.104;11.702;2023-02-14T05:29:47;97228.84;;;-2.94;100.00
62103;BME280;48077;48.104;11.702;2023-02-14T05:32:10;97203.72;;;-3.08;100.00
62103;BME280;48077;48.104;11.702;2023-02-14T05:34:34;97239.41;;;-2.83;100.00
62103;BME280;48077;48.104;11.702;2023-02-14T05:36:59;97197.13;;;-3.14;100.00
62103;BME280;48077;48.104;11.702;2023-02-14T05:39:25;97232.19;;;-2.92;100.00
62103;BME280;48077;48.104;11.702;2023-02-14T05:41:48;97194.22;;;-3.22;100.00
62103;BME280;48077;48.104;11.702;2023-02-14T05:44:11;97253.91;;;-2.92;100.00
62103;BME280;48077;48.104;11.702;2023-02-14T05:46:35;97194.41;;;-3.25;100.00
62103;BME280;48077;48.104;11.702;2023-02-14T05:49:00;97191.94;;;-3.27;100.00
62103;BME280;48077;48.104;11.702;2023-02-14T05:51:24;97192.53;;;-3.23;100.00
62103;BME280;48077;48.104;11.702;2023-02-14T05:53:47;97263.63;;;-2.81;100.00
62103;BME280;48077;48.104;11.702;2023-02-14T05:56:11;97269.69;;;-2.80;100.00
62103;BME280;48077;48.104;11.702;2023-02-14T05:58:34;97201.94;;;-3.20;100.00
62103;BME280;48077;48.104;11.702;2023-02-14T06:00:58;97263.94;;;-2.86;100.00
62103;BME280;48077;48.104;11.702;2023-02-14T06:03:22;97219.16;;;-3.18;100.00
62103;BME280;48077;48.104;11.702;2023-02-14T06:05:45;97245.69;;;-3.11;100.00
62103;BME280;48077;48.104;11.702;2023-02-14T06:08:08;97224.06;;;-3.26;100.00
62103;BME280;48077;48.104;11.702;2023-02-14T06:10:32;97278.38;;;-2.93;100.00
62103;BME280;48077;48.104;11.702;2023-02-14T06:12:55;97269.16;;;-2.98;100.00
62103;BME280;48077;48.104;11.702;2023-02-14T06:15:19;97251.63;;;-3.09;100.00
62103;BME280;48077;48.104;11.702;2023-02-14T06:17:43;97283.38;;;-2.90;100.00
62103;BME280;48077;48.104;11.702;2023-02-14T06:20:09;97233.88;;;-3.17;100.00
62103;BME280;48077;48.104;11.702;2023-02-14T06:22:32;97284.72;;;-2.84;100.00
62103;BME280;48077;48.104;11.702;2023-02-14T06:24:56;97203.41;;;-3.42;100.00
62103;BME280;48077;48.104;11.702;2023-02-14T06:27:19;97241.38;;;-3.25;100.00
62103;BME280;48077;48.104;11.702;2023-02-14T06:29:42;97287.03;;;-2.92;100.00
62103;BME280;48077;48.104;11.702;2023-02-14T06:32:06;97284.84;;;-2.98;100.00
62103;BME280;48077;48.104;11.702;2023-02-14T06:34:29;97218.03;;;-3.39;100.00
62103;BME280;48077;48.104;11.702;2023-02-14T06:36:52;97286.28;;;-2.94;100.00
62103;BME280;48077;48.104;11.702;2023-02-14T06:39:16;97278.47;;;-2.94;100.00
62103;BME280;48077;48.104;11.702;2023-02-14T06:41:39;97284.66;;;-2.95;100.00
62103;BME280;48077;48.104;11.702;2023-02-14T06:44:03;97295.41;;;-2.87;100.00
62103;BME280;48077;48.104;11.702;2023-02-14T06:46:26;97285.06;;;-2.89;100.00
62103;BME280;48077;48.104;11.702;2023-02-14T06:48:50;97287.56;;;-2.87;100.00
62103;BME280;48077;48.104;11.702;2023-02-14T06:51:13;97279.09;;;-2.91;100.00
62103;BME280;48077;48.104;11.702;2023-02-14T06:53:36;97263.22;;;-3.00;100.00
62103;BME280;48077;48.104;11.702;2023-02-14T06:56:00;97235.97;;;-3.22;100.00
62103;BME280;48077;48.104;11.702;2023-02-14T06:58:23;97275.25;;;-2.98;100.00
62103;BME280;48077;48.104;11.702;2023-02-14T07:00:47;97237.63;;;-3.21;100.00
62103;BME280;48077;48.104;11.702;2023-02-14T07:03:10;97235.44;;;-3.27;100.00
62103;BME280;48077;48.104;11.702;2023-02-14T07:05:34;97280.88;;;-3.04;100.00
62103;BME280;48077;48.104;11.702;2023-02-14T07:07:57;97278.28;;;-3.04;100.00
62103;BME280;48077;48.104;11.702;2023-02-14T07:10:21;97284.97;;;-3.00;100.00
62103;BME280;48077;48.104;11.702;2023-02-14T07:12:44;97256.03;;;-3.22;100.00
62103;BME280;48077;48.104;11.702;2023-02-14T07:15:09;97291.84;;;-2.99;100.00
62103;BME280;48077;48.104;11.702;2023-02-14T07:17:33;97260.38;;;-3.23;100.00
62103;BME280;48077;48.104;11.702;2023-02-14T07:19:56;97232.81;;;-3.40;100.00
62103;BME280;48077;48.104;11.702;2023-02-14T07:22:20;97239.63;;;-3.24;100.00
62103;BME280;48077;48.104;11.702;2023-02-14T07:24:43;97248.50;;;-3.14;100.00
62103;BME280;48077;48.104;11.702;2023-02-14T07:27:07;97244.75;;;-3.10;100.00
62103;BME280;48077;48.104;11.702;2023-02-14T07:29:30;97264.59;;;-2.95;100.00
62103;BME280;48077;48.104;11.702;2023-02-14T07:31:53;97272.63;;;-2.85;100.00
62103;BME280;48077;48.104;11.702;2023-02-14T07:34:17;97275.84;;;-2.81;100.00
62103;BME280;48077;48.104;11.702;2023-02-14T07:36:40;97242.47;;;-3.02;100.00
62103;BME280;48077;48.104;11.702;2023-02-14T07:39:04;97199.44;;;-3.22;100.00
62103;BME280;48077;48.104;11.702;2023-02-14T07:41:28;97252.25;;;-2.93;100.00
62103;BME280;48077;48.104;11.702;2023-02-14T07:43:51;97233.91;;;-3.04;100.00
62103;BME280;48077;48.104;11.702;2023-02-14T07:46:14;97237.84;;;-2.98;100.00
62103;BME280;48077;48.104;11.702;2023-02-14T07:48:39;97252.16;;;-2.91;100.00
62103;BME280;48077;48.104;11.702;2023-02-14T07:51:02;97245.25;;;-2.92;100.00
62103;BME280;48077;48.104;11.702;2023-02-14T07:53:26;97256.72;;;-2.82;100.00
62103;BME280;48077;48.104;11.702;2023-02-14T07:55:50;97251.50;;;-2.82;100.00
62103;BME280;48077;48.104;11.702;2023-02-14T07:58:14;97226.16;;;-2.93;100.00
62103;BME280;48077;48.104;11.702;2023-02-14T08:00:37;97238.69;;;-2.85;100.00
62103;BME280;48077;48.104;11.702;2023-02-14T08:03:00;97252.53;;;-2.72;100.00
62103;BME280;48077;48.104;11.702;2023-02-14T08:05:24;97225.81;;;-2.88;100.00
62103;BME280;48077;48.104;11.702;2023-02-14T08:07:47;97227.28;;;-2.84;100.00
62103;BME280;48077;48.104;11.702;2023-02-14T08:10:11;97227.91;;;-2.80;100.00
62103;BME280;48077;48.104;11.702;2023-02-14T08:12:34;97243.53;;;-2.68;100.00
62103;BME280;48077;48.104;11.702;2023-02-14T08:15:16;97234.97;;;-2.70;100.00
62103;BME280;48077;48.104;11.702;2023-02-14T08:17:58;97220.91;;;-2.80;100.00
62103;BME280;48077;48.104;11.702;2023-02-14T08:20:22;97231.53;;;-2.70;100.00
62103;BME280;48077;48.104;11.702;2023-02-14T08:22:45;97230.50;;;-2.68;100.00
62103;BME280;48077;48.104;11.702;2023-02-14T08:25:08;97206.06;;;-2.79;100.00
62103;BME280;48077;48.104;11.702;2023-02-14T08:27:32;97198.41;;;-2.70;100.00
62103;BME280;48077;48.104;11.702;2023-02-14T08:29:55;97208.81;;;-2.57;100.00
62103;BME280;48077;48.104;11.702;2023-02-14T08:32:18;97250.56;;;-2.31;100.00
62103;BME280;48077;48.104;11.702;2023-02-14T08:34:42;97239.50;;;-2.35;100.00
62103;BME280;48077;48.104;11.702;2023-02-14T08:37:06;97187.44;;;-2.62;100.00
62103;BME280;48077;48.104;11.702;2023-02-14T08:39:29;97226.44;;;-2.35;100.00
62103;BME280;48077;48.104;11.702;2023-02-14T08:41:58;97228.59;;;-2.29;100.00
62103;BME280;48077;48.104;11.702;2023-02-14T08:44:21;97238.19;;;-2.16;100.00
62103;BME280;48077;48.104;11.702;2023-02-14T08:46:44;97238.56;;;-2.10;100.00
62103;BME280;48077;48.104;11.702;2023-02-14T08:49:08;97242.34;;;-2.14;100.00
62103;BME280;48077;48.104;11.702;2023-02-14T08:51:32;97241.00;;;-2.19;100.00
62103;BME280;48077;48.104;11.702;2023-02-14T08:53:55;97226.47;;;-2.24;100.00
62103;BME280;48077;48.104;11.702;2023-02-14T08:56:19;97244.13;;;-2.14;100.00
62103;BME280;48077;48.104;11.702;2023-02-14T08:58:44;97232.88;;;-2.28;100.00
62103;BME280;48077;48.104;11.702;2023-02-14T09:01:13;97253.53;;;-2.12;100.00
62103;BME280;48077;48.104;11.702;2023-02-14T09:03:37;97257.25;;;-2.03;100.00
62103;BME280;48077;48.104;11.702;2023-02-14T09:06:04;97238.47;;;-2.08;100.00
62103;BME280;48077;48.104;11.702;2023-02-14T09:08:28;97237.16;;;-2.03;100.00
62103;BME280;48077;48.104;11.702;2023-02-14T09:10:53;97227.66;;;-2.04;100.00
62103;BME280;48077;48.104;11.702;2023-02-14T09:13:16;97250.44;;;-1.81;100.00
62103;BME280;48077;48.104;11.702;2023-02-14T09:15:40;97233.00;;;-1.81;100.00
62103;BME280;48077;48.104;11.702;2023-02-14T09:18:03;97254.34;;;-1.63;100.00
62103;BME280;48077;48.104;11.702;2023-02-14T09:20:26;97231.50;;;-1.61;100.00
62103;BME280;48077;48.104;11.702;2023-02-14T09:22:50;97219.34;;;-1.73;100.00
62103;BME280;48077;48.104;11.702;2023-02-14T09:25:15;97193.50;;;-1.78;100.00
62103;BME280;48077;48.104;11.702;2023-02-14T09:27:38;97239.88;;;-1.45;100.00
62103;BME280;48077;48.104;11.702;2023-02-14T09:30:03;97208.47;;;-1.56;100.00
62103;BME280;48077;48.104;11.702;2023-02-14T09:32:30;97260.16;;;-1.13;100.00
62103;BME280;48077;48.104;11.702;2023-02-14T09:34:53;97233.72;;;-1.21;100.00
62103;BME280;48077;48.104;11.702;2023-02-14T09:37:17;97201.69;;;-1.47;100.00
62103;BME280;48077;48.104;11.702;2023-02-14T09:39:40;97184.28;;;-1.59;100.00
62103;BME280;48077;48.104;11.702;2023-02-14T09:42:35;97255.78;;;-1.12;100.00
62103;BME280;48077;48.104;11.702;2023-02-14T09:45:11;97225.41;;;-1.26;100.00
62103;BME280;48077;48.104;11.702;2023-02-14T09:47:39;97253.28;;;-1.14;100.00
62103;BME280;48077;48.104;11.702;2023-02-14T09:50:19;97197.91;;;-1.43;100.00
62103;BME280;48077;48.104;11.702;2023-02-14T09:52:47;97189.69;;;-1.50;100.00
62103;BME280;48077;48.104;11.702;2023-02-14T09:55:14;97188.25;;;-1.43;100.00
62103;BME280;48077;48.104;11.702;2023-02-14T09:58:02;97247.56;;;-0.96;100.00
62103;BME280;48077;48.104;11.702;2023-02-14T10:05:58;97173.03;;;-0.92;100.00
62103;BME280;48077;48.104;11.702;2023-02-14T10:11:04;97230.97;;;-0.29;100.00
62103;BME280;48077;48.104;11.702;2023-02-14T10:13:36;97184.34;;;-0.80;100.00
62103;BME280;48077;48.104;11.702;2023-02-14T10:16:34;97228.88;;;-0.69;100.00
62103;BME280;48077;48.104;11.702;2023-02-14T10:19:03;97241.16;;;-0.70;100.00
62103;BME280;48077;48.104;11.702;2023-02-14T10:21:33;97211.16;;;-0.77;100.00
62103;BME280;48077;48.104;11.702;2023-02-14T10:24:05;97211.72;;;-0.39;100.00
62103;BME280;48077;48.104;11.702;2023-02-14T10:26:38;97213.97;;;0.09;100.00
62103;BME280;48077;48.104;11.702;2023-02-14T10:29:05;97209.56;;;0.51;100.00
62103;BME280;48077;48.104;11.702;2023-02-14T10:31:45;97208.66;;;0.83;100.00
62103;BME280;48077;48.104;11.702;2023-02-14T10:34:46;97216.75;;;1.22;100.00
62103;BME280;48077;48.104;11.702;2023-02-14T10:37:26;97215.09;;;1.31;100.00
62103;BME280;48077;48.104;11.702;2023-02-14T10:40:05;97216.75;;;1.22;98.42
62103;BME280;48077;48.104;11.702;2023-02-14T10:45:31;97214.69;;;0.74;100.00
62103;BME280;48077;48.104;11.702;2023-02-14T10:50:38;97205.47;;;0.79;100.00
62103;BME280;48077;48.104;11.702;2023-02-14T10:56:00;97200.72;;;0.94;100.00
62103;BME280;48077;48.104;11.702;2023-02-14T10:58:26;97199.50;;;1.08;100.00
62103;BME280;48077;48.104;11.702;2023-02-14T11:00:58;97207.41;;;1.08;100.00
62103;BME280;48077;48.104;11.702;2023-02-14T11:03:26;97202.41;;;1.05;100.00
62103;BME280;48077;48.104;11.702;2023-02-14T11:05:50;97182.50;;;1.03;99.87
62103;BME280;48077;48.104;11.702;2023-02-14T11:10:49;97181.16;;;1.18;98.96
62103;BME280;48077;48.104;11.702;2023-02-14T11:15:50;97173.56;;;2.33;95.67
62103;BME280;48077;48.104;11.702;2023-02-14T11:18:24;97169.50;;;2.68;93.18
62103;BME280;48077;48.104;11.702;2023-02-14T11:21:12;97177.19;;;3.09;89.97
62103;BME280;48077;48.104;11.702;2023-02-14T11:23:38;97178.66;;;3.21;88.17
62103;BME280;48077;48.104;11.702;2023-02-14T11:26:24;97167.84;;;3.70;85.74
62103;BME280;48077;48.104;11.702;2023-02-14T11:29:02;97161.44;;;3.72;84.83
62103;BME280;48077;48.104;11.702;2023-02-14T11:31:34;97146.81;;;3.78;82.68
62103;BME280;48077;48.104;11.702;2023-02-14T11:33:59;97136.94;;;3.80;82.92
62103;BME280;48077;48.104;11.702;2023-02-14T11:36:24;97141.69;;;4.12;80.99
62103;BME280;48077;48.104;11.702;2023-02-14T11:39:04;97136.38;;;4.30;80.22
62103;BME280;48077;48.104;11.702;2023-02-14T11:41:45;97130.56;;;4.71;77.19
62103;BME280;48077;48.104;11.702;2023-02-14T11:44:15;97133.72;;;4.74;77.80
62103;BME280;48077;48.104;11.702;2023-02-14T11:46:44;97130.75;;;5.03;76.81
62103;BME280;48077;48.104;11.702;2023-02-14T11:49:31;97112.28;;;5.12;76.40
62103;BME280;48077;48.104;11.702;2023-02-14T11:51:57;97112.34;;;5.28;76.45
62103;BME280;48077;48.104;11.702;2023-02-14T11:54:27;97110.28;;;5.48;75.85
62103;BME280;48077;48.104;11.702;2023-02-14T11:56:55;97106.38;;;5.85;72.70
62103;BME280;48077;48.104;11.702;2023-02-14T11:59:27;97107.69;;;5.89;71.48
62103;BME280;48077;48.104;11.702;2023-02-14T12:01:51;97099.63;;;6.07;71.34
62103;BME280;48077;48.104;11.702;2023-02-14T12:04:19;97090.22;;;6.13;70.19
62103;BME280;48077;48.104;11.702;2023-02-14T12:06:43;97104.13;;;6.23;69.82
62103;BME280;48077;48.104;11.702;2023-02-14T12:14:20;97078.56;;;5.89;70.97
62103;BME280;48077;48.104;11.702;2023-02-14T12:22:04;97078.25;;;5.17;75.05
62103;BME280;48077;48.104;11.702;2023-02-14T12:24:29;97094.44;;;4.79;77.71
62103;BME280;48077;48.104;11.702;2023-02-14T12:29:49;97087.22;;;4.37;79.67
62103;BME280;48077;48.104;11.702;2023-02-14T12:32:23;97086.06;;;4.14;81.60
62103;BME280;48077;48.104;11.702;2023-02-14T12:34:48;97069.44;;;3.77;83.51
62103;BME280;48077;48.104;11.702;2023-02-14T12:48:10;97073.88;;;3.77;85.25
62103;BME280;48077;48.104;11.702;2023-02-14T12:53:27;97072.72;;;4.15;83.87
62103;BME280;48077;48.104;11.702;2023-02-14T12:58:43;97065.22;;;4.55;81.43
62103;BME280;48077;48.104;11.702;2023-02-14T13:01:24;97059.47;;;4.59;83.00
62103;BME280;48077;48.104;11.702;2023-02-14T13:10:27;97048.13;;;4.41;84.57
62103;BME280;48077;48.104;11.702;2023-02-14T13:15:43;97047.34;;;4.22;85.63
62103;BME280;48077;48.104;11.702;2023-02-14T13:18:31;97040.84;;;4.09;86.04
62103;BME280;48077;48.104;11.702;2023-02-14T13:21:01;97031.31;;;3.98;86.94
62103;BME280;48077;48.104;11.702;2023-02-14T13:23:28;97036.56;;;3.90;87.41
62103;BME280;48077;48.104;11.702;2023-02-14T13:26:03;97035.44;;;3.92;88.10
62103;BME280;48077;48.104;11.702;2023-02-14T13:28:28;97031.03;;;4.01;87.96
62103;BME280;48077;48.104;11.702;2023-02-14T13:30:57;97014.78;;;3.88;87.16
62103;BME280;48077;48.104;11.702;2023-02-14T13:33:35;97036.31;;;4.01;88.04
62103;BME280;48077;48.104;11.702;2023-02-14T13:36:02;97034.28;;;3.95;87.81
62103;BME280;48077;48.104;11.702;2023-02-14T13:38:27;97024.66;;;3.85;88.65
62103;BME280;48077;48.104;11.702;2023-02-14T13:40:54;97016.28;;;3.72;89.03
62103;BME280;48077;48.104;11.702;2023-02-14T13:43:51;97031.81;;;3.75;89.83
62103;BME280;48077;48.104;11.702;2023-02-14T13:51:51;97005.16;;;3.42;90.98
62103;BME280;48077;48.104;11.702;2023-02-14T13:55:06;97010.78;;;3.48;91.81
62103;BME280;48077;48.104;11.702;2023-02-14T13:57:31;97018.56;;;3.49;92.03
62103;BME280;48077;48.104;11.702;2023-02-14T14:02:51;97018.09;;;3.54;92.62
62103;BME280;48077;48.104;11.702;2023-02-14T14:05:47;97005.38;;;3.49;93.28
62103;BME280;48077;48.104;11.702;2023-02-14T14:10:49;97009.69;;;3.50;91.88
62103;BME280;48077;48.104;11.702;2023-02-14T14:18:46;97010.41;;;3.42;93.54
62103;BME280;48077;48.104;11.702;2023-02-14T14:24:14;97007.75;;;3.24;94.31
62103;BME280;48077;48.104;11.702;2023-02-14T14:26:45;96997.81;;;3.18;93.90
62103;BME280;48077;48.104;11.702;2023-02-14T14:29:25;96989.13;;;3.08;94.59
62103;BME280;48077;48.104;11.702;2023-02-14T14:31:49;96986.38;;;3.10;94.16
62103;BME280;48077;48.104;11.702;2023-02-14T14:34:18;96992.81;;;2.97;96.08
62103;BME280;48077;48.104;11.702;2023-02-14T14:36:42;96993.94;;;2.95;96.60